sensor_id;sensor_type;location;lat;lon;timestamp;P1;durP1;ratioP1;P2;durP2;ratioP2
3817;SDS011;1924;48.078;11.516;2023-01-01T00:01:21;27.30;;;0.80;;
3817;SDS011;1924;48.078;11.516;2023-01-01T00:03:48;27.10;;;0.80;;
3817;SDS011;1924;48.078;11.516;2023-01-01T00:06:16;27.20;;;0.80;;
3817;SDS011;1924;48.078;11.516;2023-01-01T00:08:43;26.97;;;0.80;;
3817;SDS011;1924;48.078;11.516;2023-01-01T00:11:10;27.10;;;0.80;;
3817;SDS011;1924;48.078;11.516;2023-01-01T00:13:37;26.87;;;0.80;;
3817;SDS011;1924;48.078;11.516;2023-01-01T00:16:04;27.20;;;0.80;;
3817;SDS011;1924;48.078;11.516;2023-01-01T00:18:32;27.20;;;0.80;;
3817;SDS011;1924;48.078;11.516;2023-01-01T00:21:02;27.20;;;0.80;;
3817;SDS011;1924;48.078;11.516;2023-01-01T00:23:31;27.10;;;0.80;;
3817;SDS011;1924;48.078;11.516;2023-01-01T00:25:58;27.20;;;0.80;;
3817;SDS011;1924;48.078;11.516;2023-01-01T00:28:25;27.33;;;0.80;;
3817;SDS011;1924;48.078;11.516;2023-01-01T00:30:52;27.30;;;0.80;;
3817;SDS011;1924;48.078;11.516;2023-01-01T00:33:19;27.30;;;0.80;;
3817;SDS011;1924;48.078;11.516;2023-01-01T00:35:45;27.20;;;0.80;;
3817;SDS011;1924;48.078;11.516;2023-01-01T00:38:12;27.20;;;0.80;;
3817;SDS011;1924;48.078;11.516;2023-01-01T00:40:40;27.20;;;0.80;;
3817;SDS011;1924;48.078;11.516;2023-01-01T00:43:07;27.20;;;0.80;;
3817;SDS011;1924;48.078;11.516;2023-01-01T00:45:34;27.10;;;0.80;;
3817;SDS011;1924;48.078;11.516;2023-01-01T00:48:00;27.10;;;0.80;;
3817;SDS011;1924;48.078;11.516;2023-01-01T00:50:27;27.27;;;0.80;;
3817;SDS011;1924;48.078;11.516;2023-01-01T00:52:54;27.00;;;0.80;;
3817;SDS011;1924;48.078;11.516;2023-01-01T00:55:20;27.10;;;0.80;;
3817;SDS011;1924;48.078;11.516;2023-01-01T00:57:48;27.20;;;0.80;;
3817;SDS011;1924;48.078;11.516;2023-01-01T01:00:15;27.10;;;0.80;;
3817;SDS011;1924;48.078;11.516;2023-01-01T01:02:42;26.97;;;0.80;;
3817;SDS011;1924;48.078;11.516;2023-01-01T01:05:09;27.20;;;0.80;;
3817;SDS011;1924;48.078;11.516;2023-01-01T01:07:36;27.00;;;0.80;;
3817;SDS011;1924;48.078;11.516;2023-01-01T01:10:04;27.17;;;0.70;;
3817;SDS011;1924;48.078;11.516;2023-01-01T01:12:32;26.90;;;0.80;;
3817;SDS011;1924;48.078;11.516;2023-01-01T01:15:00;27.10;;;0.80;;
3817;SDS011;1924;48.078;11.516;2023-01-01T01:17:27;27.10;;;0.80;;
3817;SDS011;1924;48.078;11.516;2023-01-01T01:19:54;27.20;;;0.80;;
3817;SDS011;1924;48.078;11.516;2023-01-01T01:22:21;27.27;;;0.80;;
3817;SDS011;1924;48.078;11.516;2023-01-01T01:24:47;27.10;;;0.80;;
3817;SDS011;1924;48.078;11.516;2023-01-01T01:27:17;27.00;;;0.80;;
3817;SDS011;1924;48.078;11.516;2023-01-01T01:29:44;27.10;;;0.80;;
3817;SDS011;1924;48.078;11.516;2023-01-01T01:32:12;27.00;;;0.80;;
3817;SDS011;1924;48.078;11.516;2023-01-01T01:34:38;27.17;;;0.80;;
3817;SDS011;1924;48.078;11.516;2023-01-01T01:37:05;26.87;;;0.80;;
3817;SDS011;1924;48.078;11.516;2023-01-01T01:39:32;27.30;;;0.80;;
3817;SDS011;1924;48.078;11.516;2023-01-01T01:41:59;27.10;;;0.80;;
3817;SDS011;1924;48.078;11.516;2023-01-01T01:47:28;27.10;;;0.80;;
3817;SDS011;1924;48.078;11.516;2023-01-01T01:50:00;27.10;;;0.80;;
3817;SDS011;1924;48.078;11.516;2023-01-01T01:52:31;27.10;;;0.80;;
3817;SDS011;1924;48.078;11.516;2023-01-01T01:55:03;27.17;;;0.80;;
3817;SDS011;1924;48.078;11.516;2023-01-01T01:57:32;27.20;;;0.80;;
3817;SDS011;1924;48.078;11.516;2023-01-01T02:00:00;27.00;;;0.80;;
3817;SDS011;1924;48.078;11.516;2023-01-01T02:02:31;27.20;;;0.80;;
3817;SDS011;1924;48.078;11.516;2023-01-01T02:05:01;27.00;;;0.80;;
3817;SDS011;1924;48.078;11.516;2023-01-01T02:07:29;27.10;;;0.70;;
3817;SDS011;1924;48.078;11.516;2023-01-01T02:09:59;27.17;;;0.80;;
3817;SDS011;1924;48.078;11.516;2023-01-01T02:12:26;26.90;;;0.70;;
3817;SDS011;1924;48.078;11.516;2023-01-01T02:15:06;27.20;;;0.80;;
3817;SDS011;1924;48.078;11.516;2023-01-01T05:01:51;26.80;;;0.80;;
3817;SDS011;1924;48.078;11.516;2023-01-01T05:04:18;27.00;;;0.80;;
3817;SDS011;1924;48.078;11.516;2023-01-01T05:06:45;26.83;;;0.80;;
3817;SDS011;1924;48.078;11.516;2023-01-01T05:09:12;26.90;;;0.80;;
3817;SDS011;1924;48.078;11.516;2023-01-01T05:11:38;26.70;;;0.73;;
3817;SDS011;1924;48.078;11.516;2023-01-01T05:14:05;26.90;;;0.80;;
3817;SDS011;1924;48.078;11.516;2023-01-01T05:16:33;26.80;;;0.80;;
3817;SDS011;1924;48.078;11.516;2023-01-01T05:19:03;26.83;;;0.80;;
3817;SDS011;1924;48.078;11.516;2023-01-01T05:21:31;26.90;;;0.70;;
3817;SDS011;1924;48.078;11.516;2023-01-01T05:23:59;26.80;;;0.80;;
3817;SDS011;1924;48.078;11.516;2023-01-01T05:26:27;26.80;;;0.80;;
3817;SDS011;1924;48.078;11.516;2023-01-01T05:28:56;26.60;;;0.80;;
3817;SDS011;1924;48.078;11.516;2023-01-01T05:31:25;26.70;;;0.80;;
3817;SDS011;1924;48.078;11.516;2023-01-01T05:33:53;26.80;;;0.80;;
3817;SDS011;1924;48.078;11.516;2023-01-01T05:36:23;26.80;;;0.80;;
3817;SDS011;1924;48.078;11.516;2023-01-01T05:38:52;26.80;;;0.80;;
3817;SDS011;1924;48.078;11.516;2023-01-01T05:41:19;26.70;;;0.70;;
3817;SDS011;1924;48.078;11.516;2023-01-01T05:43:47;26.87;;;0.80;;
3817;SDS011;1924;48.078;11.516;2023-01-01T05:46:15;26.87;;;0.80;;
3817;SDS011;1924;48.078;11.516;2023-01-01T05:48:43;26.60;;;0.80;;
3817;SDS011;1924;48.078;11.516;2023-01-01T05:51:11;26.70;;;0.80;;
3817;SDS011;1924;48.078;11.516;2023-01-01T05:53:39;26.80;;;0.80;;
3817;SDS011;1924;48.078;11.516;2023-01-01T05:56:08;26.70;;;0.80;;
3817;SDS011;1924;48.078;11.516;2023-01-01T05:58:35;26.70;;;0.80;;
3817;SDS011;1924;48.078;11.516;2023-01-01T06:01:06;26.70;;;0.77;;
3817;SDS011;1924;48.078;11.516;2023-01-01T06:03:34;26.50;;;0.70;;
3817;SDS011;1924;48.078;11.516;2023-01-01T06:06:02;26.70;;;0.80;;
3817;SDS011;1924;48.078;11.516;2023-01-01T06:08:30;26.60;;;0.80;;
3817;SDS011;1924;48.078;11.516;2023-01-01T06:10:58;26.70;;;0.80;;
3817;SDS011;1924;48.078;11.516;2023-01-01T06:13:26;26.70;;;0.80;;
3817;SDS011;1924;48.078;11.516;2023-01-01T06:15:53;26.80;;;0.80;;
3817;SDS011;1924;48.078;11.516;2023-01-01T06:18:20;26.80;;;0.70;;
3817;SDS011;1924;48.078;11.516;2023-01-01T06:20:47;26.80;;;0.80;;
3817;SDS011;1924;48.078;11.516;2023-01-01T06:23:14;26.80;;;0.80;;
3817;SDS011;1924;48.078;11.516;2023-01-01T06:25:41;26.60;;;0.80;;
3817;SDS011;1924;48.078;11.516;2023-01-01T06:28:09;26.60;;;0.80;;
3817;SDS011;1924;48.078;11.516;2023-01-01T06:30:36;26.80;;;0.80;;
3817;SDS011;1924;48.078;11.516;2023-01-01T06:33:03;26.80;;;0.77;;
3817;SDS011;1924;48.078;11.516;2023-01-01T06:35:30;26.87;;;0.80;;
3817;SDS011;1924;48.078;11.516;2023-01-01T06:37:57;26.60;;;0.80;;
3817;SDS011;1924;48.078;11.516;2023-01-01T06:40:24;26.73;;;0.77;;
3817;SDS011;1924;48.078;11.516;2023-01-01T06:42:51;26.70;;;0.70;;
3817;SDS011;1924;48.078;11.516;2023-01-01T06:45:19;26.70;;;0.77;;
3817;SDS011;1924;48.078;11.516;2023-01-01T06:47:46;26.80;;;0.70;;
3817;SDS011;1924;48.078;11.516;2023-01-01T06:50:12;26.70;;;0.80;;
3817;SDS011;1924;48.078;11.516;2023-01-01T06:52:39;26.60;;;0.80;;
3817;SDS011;1924;48.078;11.516;2023-01-01T06:55:06;26.50;;;0.80;;
3817;SDS011;1924;48.078;11.516;2023-01-01T06:57:33;26.80;;;0.80;;
3817;SDS011;1924;48.078;11.516;2023-01-01T07:00:00;26.80;;;0.80;;
3817;SDS011;1924;48.078;11.516;2023-01-01T07:02:28;26.70;;;0.80;;
3817;SDS011;1924;48.078;11.516;2023-01-01T07:04:55;26.70;;;0.80;;
3817;SDS011;1924;48.078;11.516;2023-01-01T07:07:22;26.80;;;0.80;;
3817;SDS011;1924;48.078;11.516;2023-01-01T07:09:48;26.90;;;0.80;;
3817;SDS011;1924;48.078;11.516;2023-01-01T07:12:15;26.67;;;0.80;;
3817;SDS011;1924;48.078;11.516;2023-01-01T07:14:42;26.90;;;0.80;;
3817;SDS011;1924;48.078;11.516;2023-01-01T07:17:08;26.80;;;0.80;;
3817;SDS011;1924;48.078;11.516;2023-01-01T07:19:36;26.87;;;0.80;;
3817;SDS011;1924;48.078;11.516;2023-01-01T07:22:03;26.70;;;0.80;;
3817;SDS011;1924;48.078;11.516;2023-01-01T07:24:30;26.73;;;0.77;;
3817;SDS011;1924;48.078;11.516;2023-01-01T07:26:56;26.70;;;0.80;;
3817;SDS011;1924;48.078;11.516;2023-01-01T07:29:23;26.67;;;0.80;;
3817;SDS011;1924;48.078;11.516;2023-01-01T07:31:50;26.80;;;0.77;;
3817;SDS011;1924;48.078;11.516;2023-01-01T07:34:17;26.80;;;0.80;;
3817;SDS011;1924;48.078;11.516;2023-01-01T07:36:45;26.80;;;0.80;;
3817;SDS011;1924;48.078;11.516;2023-01-01T07:39:12;26.60;;;0.70;;
3817;SDS011;1924;48.078;11.516;2023-01-01T07:41:38;26.70;;;0.77;;
3817;SDS011;1924;48.078;11.516;2023-01-01T07:44:05;26.70;;;0.80;;
3817;SDS011;1924;48.078;11.516;2023-01-01T07:46:33;26.80;;;0.80;;
3817;SDS011;1924;48.078;11.516;2023-01-01T07:49:00;26.80;;;0.80;;
3817;SDS011;1924;48.078;11.516;2023-01-01T07:51:27;26.60;;;0.80;;
3817;SDS011;1924;48.078;11.516;2023-01-01T07:53:55;26.60;;;0.70;;
3817;SDS011;1924;48.078;11.516;2023-01-01T07:56:22;26.80;;;0.80;;
3817;SDS011;1924;48.078;11.516;2023-01-01T07:58:49;26.70;;;0.70;;
3817;SDS011;1924;48.078;11.516;2023-01-01T08:01:16;26.50;;;0.80;;
3817;SDS011;1924;48.078;11.516;2023-01-01T08:03:43;26.70;;;0.70;;
3817;SDS011;1924;48.078;11.516;2023-01-01T08:06:10;26.57;;;0.77;;
3817;SDS011;1924;48.078;11.516;2023-01-01T08:08:38;26.70;;;0.80;;
3817;SDS011;1924;48.078;11.516;2023-01-01T08:11:06;26.50;;;0.70;;
3817;SDS011;1924;48.078;11.516;2023-01-01T08:13:33;26.60;;;0.80;;
3817;SDS011;1924;48.078;11.516;2023-01-01T08:16:00;26.50;;;0.77;;
3817;SDS011;1924;48.078;11.516;2023-01-01T08:18:27;26.50;;;0.73;;
3817;SDS011;1924;48.078;11.516;2023-01-01T08:20:53;26.70;;;0.80;;
3817;SDS011;1924;48.078;11.516;2023-01-01T08:23:21;26.60;;;0.80;;
3817;SDS011;1924;48.078;11.516;2023-01-01T08:25:48;26.60;;;0.80;;
3817;SDS011;1924;48.078;11.516;2023-01-01T08:28:16;26.50;;;0.70;;
3817;SDS011;1924;48.078;11.516;2023-01-01T08:30:42;26.40;;;0.70;;
3817;SDS011;1924;48.078;11.516;2023-01-01T08:33:09;26.37;;;0.80;;
3817;SDS011;1924;48.078;11.516;2023-01-01T08:35:36;26.50;;;0.73;;
3817;SDS011;1924;48.078;11.516;2023-01-01T08:38:07;26.40;;;0.80;;
3817;SDS011;1924;48.078;11.516;2023-01-01T08:40:35;26.40;;;0.70;;
3817;SDS011;1924;48.078;11.516;2023-01-01T08:43:02;26.50;;;0.73;;
3817;SDS011;1924;48.078;11.516;2023-01-01T08:45:30;26.50;;;0.80;;
3817;SDS011;1924;48.078;11.516;2023-01-01T08:47:57;26.70;;;0.80;;
3817;SDS011;1924;48.078;11.516;2023-01-01T08:50:24;26.60;;;0.80;;
3817;SDS011;1924;48.078;11.516;2023-01-01T08:52:51;26.70;;;0.70;;
3817;SDS011;1924;48.078;11.516;2023-01-01T08:55:17;26.50;;;0.77;;
3817;SDS011;1924;48.078;11.516;2023-01-01T08:57:44;26.60;;;0.77;;
3817;SDS011;1924;48.078;11.516;2023-01-01T09:00:11;26.70;;;0.80;;
3817;SDS011;1924;48.078;11.516;2023-01-01T09:02:40;26.70;;;0.70;;
3817;SDS011;1924;48.078;11.516;2023-01-01T09:05:07;26.50;;;0.70;;
3817;SDS011;1924;48.078;11.516;2023-01-01T09:07:34;26.60;;;0.80;;
3817;SDS011;1924;48.078;11.516;2023-01-01T09:10:01;26.80;;;0.80;;
3817;SDS011;1924;48.078;11.516;2023-01-01T09:12:28;26.90;;;0.70;;
3817;SDS011;1924;48.078;11.516;2023-01-01T09:14:56;26.80;;;0.77;;
3817;SDS011;1924;48.078;11.516;2023-01-01T09:17:23;26.90;;;0.80;;
3817;SDS011;1924;48.078;11.516;2023-01-01T09:19:51;27.10;;;0.80;;
3817;SDS011;1924;48.078;11.516;2023-01-01T09:22:17;27.10;;;0.70;;
3817;SDS011;1924;48.078;11.516;2023-01-01T09:24:44;27.20;;;0.70;;
3817;SDS011;1924;48.078;11.516;2023-01-01T09:27:11;27.20;;;0.80;;
3817;SDS011;1924;48.078;11.516;2023-01-01T09:29:37;27.20;;;0.70;;
3817;SDS011;1924;48.078;11.516;2023-01-01T09:32:04;27.20;;;0.80;;
3817;SDS011;1924;48.078;11.516;2023-01-01T09:34:31;27.30;;;0.80;;
3817;SDS011;1924;48.078;11.516;2023-01-01T09:36:59;27.17;;;0.73;;
3817;SDS011;1924;48.078;11.516;2023-01-01T09:39:25;27.10;;;0.70;;
3817;SDS011;1924;48.078;11.516;2023-01-01T09:41:56;27.20;;;0.73;;
3817;SDS011;1924;48.078;11.516;2023-01-01T09:44:42;27.30;;;0.80;;
3817;SDS011;1924;48.078;11.516;2023-01-01T09:47:19;27.20;;;0.70;;
3817;SDS011;1924;48.078;11.516;2023-01-01T09:49:49;27.20;;;0.70;;
3817;SDS011;1924;48.078;11.516;2023-01-01T09:52:21;27.10;;;0.77;;
3817;SDS011;1924;48.078;11.516;2023-01-01T09:54:51;27.27;;;0.80;;
3817;SDS011;1924;48.078;11.516;2023-01-01T09:57:22;27.40;;;0.80;;
3817;SDS011;1924;48.078;11.516;2023-01-01T09:59:54;27.30;;;0.73;;
3817;SDS011;1924;48.078;11.516;2023-01-01T10:02:26;27.20;;;0.73;;
3817;SDS011;1924;48.078;11.516;2023-01-01T10:05:03;27.37;;;0.80;;
3817;SDS011;1924;48.078;11.516;2023-01-01T10:07:43;27.60;;;0.80;;
3817;SDS011;1924;48.078;11.516;2023-01-01T10:10:17;27.30;;;0.70;;
3817;SDS011;1924;48.078;11.516;2023-01-01T10:12:58;27.50;;;0.80;;
3817;SDS011;1924;48.078;11.516;2023-01-01T10:15:33;27.40;;;0.73;;
3817;SDS011;1924;48.078;11.516;2023-01-01T10:18:05;27.60;;;0.80;;
3817;SDS011;1924;48.078;11.516;2023-01-01T10:20:39;27.60;;;0.70;;
3817;SDS011;1924;48.078;11.516;2023-01-01T10:23:13;27.57;;;0.80;;
3817;SDS011;1924;48.078;11.516;2023-01-01T10:25:44;27.80;;;0.80;;
3817;SDS011;1924;48.078;11.516;2023-01-01T10:28:13;27.70;;;0.70;;
3817;SDS011;1924;48.078;11.516;2023-01-01T10:30:44;27.47;;;0.80;;
3817;SDS011;1924;48.078;11.516;2023-01-01T10:33:11;27.60;;;0.73;;
3817;SDS011;1924;48.078;11.516;2023-01-01T10:35:39;27.77;;;0.80;;
3817;SDS011;1924;48.078;11.516;2023-01-01T10:38:11;27.90;;;0.70;;
3817;SDS011;1924;48.078;11.516;2023-01-01T10:40:46;27.90;;;0.80;;
3817;SDS011;1924;48.078;11.516;2023-01-01T10:43:14;28.00;;;0.80;;
3817;SDS011;1924;48.078;11.516;2023-01-01T10:45:41;28.00;;;0.80;;
3817;SDS011;1924;48.078;11.516;2023-01-01T10:48:13;28.00;;;0.80;;
3817;SDS011;1924;48.078;11.516;2023-01-01T10:50:43;27.93;;;0.80;;
3817;SDS011;1924;48.078;11.516;2023-01-01T10:53:24;28.20;;;0.80;;
3817;SDS011;1924;48.078;11.516;2023-01-01T10:56:07;28.10;;;0.80;;
3817;SDS011;1924;48.078;11.516;2023-01-01T10:58:38;28.20;;;0.80;;
3817;SDS011;1924;48.078;11.516;2023-01-01T11:01:07;28.00;;;0.80;;
3817;SDS011;1924;48.078;11.516;2023-01-01T11:03:35;28.30;;;0.80;;
3817;SDS011;1924;48.078;11.516;2023-01-01T11:06:03;28.37;;;0.80;;
3817;SDS011;1924;48.078;11.516;2023-01-01T11:08:37;28.20;;;0.70;;
3817;SDS011;1924;48.078;11.516;2023-01-01T11:11:06;28.40;;;0.80;;
3817;SDS011;1924;48.078;11.516;2023-01-01T11:13:46;28.30;;;0.80;;
3817;SDS011;1924;48.078;11.516;2023-01-01T11:16:15;28.30;;;0.80;;
3817;SDS011;1924;48.078;11.516;2023-01-01T11:18:42;28.40;;;0.80;;
3817;SDS011;1924;48.078;11.516;2023-01-01T11:21:08;28.60;;;0.80;;
3817;SDS011;1924;48.078;11.516;2023-01-01T11:23:37;28.50;;;0.80;;
3817;SDS011;1924;48.078;11.516;2023-01-01T11:26:05;28.47;;;0.80;;
3817;SDS011;1924;48.078;11.516;2023-01-01T11:28:57;28.30;;;0.80;;
3817;SDS011;1924;48.078;11.516;2023-01-01T11:31:26;28.43;;;0.80;;
3817;SDS011;1924;48.078;11.516;2023-01-01T11:33:55;28.60;;;0.80;;
3817;SDS011;1924;48.078;11.516;2023-01-01T11:36:23;28.60;;;0.80;;
3817;SDS011;1924;48.078;11.516;2023-01-01T11:39:04;28.70;;;0.80;;
3817;SDS011;1924;48.078;11.516;2023-01-01T11:41:43;28.60;;;0.80;;
3817;SDS011;1924;48.078;11.516;2023-01-01T11:44:12;28.70;;;0.80;;
3817;SDS011;1924;48.078;11.516;2023-01-01T11:46:51;28.67;;;0.80;;
3817;SDS011;1924;48.078;11.516;2023-01-01T11:49:20;28.57;;;0.73;;
3817;SDS011;1924;48.078;11.516;2023-01-01T11:51:53;28.50;;;0.80;;
3817;SDS011;1924;48.078;11.516;2023-01-01T11:54:23;28.60;;;0.80;;
3817;SDS011;1924;48.078;11.516;2023-01-01T11:57:01;28.60;;;0.80;;
3817;SDS011;1924;48.078;11.516;2023-01-01T11:59:38;28.70;;;0.80;;
3817;SDS011;1924;48.078;11.516;2023-01-01T12:02:12;28.60;;;0.80;;
3817;SDS011;1924;48.078;11.516;2023-01-01T12:04:45;28.70;;;0.80;;
3817;SDS011;1924;48.078;11.516;2023-01-01T12:07:22;28.60;;;0.80;;
3817;SDS011;1924;48.078;11.516;2023-01-01T12:09:55;28.80;;;0.80;;
3817;SDS011;1924;48.078;11.516;2023-01-01T12:12:27;28.40;;;0.80;;
3817;SDS011;1924;48.078;11.516;2023-01-01T12:15:00;28.70;;;0.80;;
3817;SDS011;1924;48.078;11.516;2023-01-01T12:17:31;28.60;;;0.80;;
3817;SDS011;1924;48.078;11.516;2023-01-01T12:20:04;28.50;;;0.80;;
3817;SDS011;1924;48.078;11.516;2023-01-01T12:22:38;28.80;;;0.77;;
3817;SDS011;1924;48.078;11.516;2023-01-01T12:25:08;28.60;;;0.80;;
3817;SDS011;1924;48.078;11.516;2023-01-01T12:27:46;28.73;;;0.80;;
3817;SDS011;1924;48.078;11.516;2023-01-01T12:30:22;28.47;;;0.80;;
3817;SDS011;1924;48.078;11.516;2023-01-01T12:32:56;28.47;;;0.80;;
3817;SDS011;1924;48.078;11.516;2023-01-01T12:35:41;28.80;;;0.80;;
3817;SDS011;1924;48.078;11.516;2023-01-01T12:38:22;28.60;;;0.80;;
3817;SDS011;1924;48.078;11.516;2023-01-01T12:41:03;28.50;;;0.80;;
3817;SDS011;1924;48.078;11.516;2023-01-01T12:43:35;28.80;;;0.80;;
3817;SDS011;1924;48.078;11.516;2023-01-01T12:49:05;28.80;;;0.73;;
3817;SDS011;1924;48.078;11.516;2023-01-01T12:51:53;28.80;;;0.80;;
3817;SDS011;1924;48.078;11.516;2023-01-01T12:54:38;28.53;;;0.80;;
3817;SDS011;1924;48.078;11.516;2023-01-01T12:57:29;28.70;;;0.80;;
3817;SDS011;1924;48.078;11.516;2023-01-01T13:00:03;28.50;;;0.80;;
3817;SDS011;1924;48.078;11.516;2023-01-01T13:02:40;28.70;;;0.80;;
3817;SDS011;1924;48.078;11.516;2023-01-01T13:05:14;28.80;;;0.73;;
3817;SDS011;1924;48.078;11.516;2023-01-01T13:07:45;28.67;;;0.70;;
3817;SDS011;1924;48.078;11.516;2023-01-01T13:10:20;28.70;;;0.80;;
3817;SDS011;1924;48.078;11.516;2023-01-01T13:12:56;28.67;;;0.80;;
3817;SDS011;1924;48.078;11.516;2023-01-01T13:15:33;28.70;;;0.80;;
3817;SDS011;1924;48.078;11.516;2023-01-01T13:18:22;28.60;;;0.80;;
3817;SDS011;1924;48.078;11.516;2023-01-01T13:20:54;28.43;;;0.70;;
3817;SDS011;1924;48.078;11.516;2023-01-01T13:23:42;28.70;;;0.80;;
3817;SDS011;1924;48.078;11.516;2023-01-01T13:32:05;28.80;;;0.80;;
3817;SDS011;1924;48.078;11.516;2023-01-01T13:37:28;28.70;;;0.80;;
3817;SDS011;1924;48.078;11.516;2023-01-01T13:40:29;28.70;;;0.80;;
3817;SDS011;1924;48.078;11.516;2023-01-01T13:43:05;28.60;;;0.80;;
3817;SDS011;1924;48.078;11.516;2023-01-01T13:45:44;28.50;;;0.80;;
3817;SDS011;1924;48.078;11.516;2023-01-01T13:48:20;28.60;;;0.80;;
3817;SDS011;1924;48.078;11.516;2023-01-01T13:50:59;28.70;;;0.80;;
3817;SDS011;1924;48.078;11.516;2023-01-01T13:53:48;28.60;;;0.80;;
3817;SDS011;1924;48.078;11.516;2023-01-01T13:56:36;28.43;;;0.80;;
3817;SDS011;1924;48.078;11.516;2023-01-01T13:59:23;28.67;;;0.80;;
3817;SDS011;1924;48.078;11.516;2023-01-01T14:02:19;28.57;;;0.80;;
3817;SDS011;1924;48.078;11.516;2023-01-01T14:04:50;28.60;;;0.80;;
3817;SDS011;1924;48.078;11.516;2023-01-01T14:07:26;28.50;;;0.77;;
3817;SDS011;1924;48.078;11.516;2023-01-01T14:12:50;28.50;;;0.77;;
3817;SDS011;1924;48.078;11.516;2023-01-01T14:15:27;28.67;;;0.77;;
3817;SDS011;1924;48.078;11.516;2023-01-01T14:17:58;28.50;;;0.80;;
3817;SDS011;1924;48.078;11.516;2023-01-01T14:20:29;28.60;;;0.77;;
3817;SDS011;1924;48.078;11.516;2023-01-01T14:23:03;28.40;;;0.77;;
3817;SDS011;1924;48.078;11.516;2023-01-01T14:25:35;28.50;;;0.80;;
3817;SDS011;1924;48.078;11.516;2023-01-01T14:28:03;28.50;;;0.80;;
3817;SDS011;1924;48.078;11.516;2023-01-01T14:30:33;28.40;;;0.80;;
3817;SDS011;1924;48.078;11.516;2023-01-01T14:33:01;28.60;;;0.70;;
3817;SDS011;1924;48.078;11.516;2023-01-01T14:35:28;28.50;;;0.80;;
3817;SDS011;1924;48.078;11.516;2023-01-01T14:37:55;28.70;;;0.77;;
3817;SDS011;1924;48.078;11.516;2023-01-01T14:40:23;28.60;;;0.80;;
3817;SDS011;1924;48.078;11.516;2023-01-01T14:42:55;28.50;;;0.80;;
3817;SDS011;1924;48.078;11.516;2023-01-01T14:45:25;28.50;;;0.80;;
3817;SDS011;1924;48.078;11.516;2023-01-01T14:47:55;28.17;;;0.73;;
3817;SDS011;1924;48.078;11.516;2023-01-01T14:50:30;28.37;;;0.80;;
3817;SDS011;1924;48.078;11.516;2023-01-01T14:53:00;28.30;;;0.80;;
3817;SDS011;1924;48.078;11.516;2023-01-01T14:55:34;28.40;;;0.77;;
3817;SDS011;1924;48.078;11.516;2023-01-01T14:58:05;28.50;;;0.70;;
3817;SDS011;1924;48.078;11.516;2023-01-01T15:00:37;28.40;;;0.80;;
3817;SDS011;1924;48.078;11.516;2023-01-01T15:03:05;28.17;;;0.70;;
3817;SDS011;1924;48.078;11.516;2023-01-01T15:05:38;28.50;;;0.80;;
3817;SDS011;1924;48.078;11.516;2023-01-01T15:08:06;28.50;;;0.70;;
3817;SDS011;1924;48.078;11.516;2023-01-01T15:10:43;28.27;;;0.73;;
3817;SDS011;1924;48.078;11.516;2023-01-01T15:13:12;28.20;;;0.80;;
3817;SDS011;1924;48.078;11.516;2023-01-01T15:15:42;28.17;;;0.80;;
3817;SDS011;1924;48.078;11.516;2023-01-01T15:21:05;28.20;;;0.80;;
3817;SDS011;1924;48.078;11.516;2023-01-01T15:23:37;28.10;;;0.80;;
3817;SDS011;1924;48.078;11.516;2023-01-01T15:26:08;28.10;;;0.70;;
3817;SDS011;1924;48.078;11.516;2023-01-01T15:28:35;28.30;;;0.80;;
3817;SDS011;1924;48.078;11.516;2023-01-01T15:31:03;28.27;;;0.80;;
3817;SDS011;1924;48.078;11.516;2023-01-01T15:33:30;28.20;;;0.73;;
3817;SDS011;1924;48.078;11.516;2023-01-01T15:35:57;28.30;;;0.77;;
3817;SDS011;1924;48.078;11.516;2023-01-01T15:38:28;28.10;;;0.80;;
3817;SDS011;1924;48.078;11.516;2023-01-01T15:40:59;28.10;;;0.80;;
3817;SDS011;1924;48.078;11.516;2023-01-01T15:43:26;28.10;;;0.80;;
3817;SDS011;1924;48.078;11.516;2023-01-01T15:45:55;28.17;;;0.80;;
3817;SDS011;1924;48.078;11.516;2023-01-01T15:48:28;28.17;;;0.77;;
3817;SDS011;1924;48.078;11.516;2023-01-01T15:50:59;28.30;;;0.80;;
3817;SDS011;1924;48.078;11.516;2023-01-01T15:53:35;28.10;;;0.70;;
3817;SDS011;1924;48.078;11.516;2023-01-01T15:56:11;28.00;;;0.80;;
3817;SDS011;1924;48.078;11.516;2023-01-01T15:58:40;28.20;;;0.80;;
3817;SDS011;1924;48.078;11.516;2023-01-01T16:01:12;28.07;;;0.77;;
3817;SDS011;1924;48.078;11.516;2023-01-01T16:03:44;28.07;;;0.80;;
3817;SDS011;1924;48.078;11.516;2023-01-01T16:06:14;28.10;;;0.70;;
3817;SDS011;1924;48.078;11.516;2023-01-01T16:08:43;28.20;;;0.80;;
3817;SDS011;1924;48.078;11.516;2023-01-01T16:11:10;28.20;;;0.80;;
3817;SDS011;1924;48.078;11.516;2023-01-01T16:13:38;28.10;;;0.80;;
3817;SDS011;1924;48.078;11.516;2023-01-01T16:16:06;28.30;;;0.80;;
3817;SDS011;1924;48.078;11.516;2023-01-01T16:18:52;28.20;;;0.80;;
3817;SDS011;1924;48.078;11.516;2023-01-01T16:21:20;28.10;;;0.80;;
3817;SDS011;1924;48.078;11.516;2023-01-01T16:23:51;28.10;;;0.70;;
3817;SDS011;1924;48.078;11.516;2023-01-01T16:26:18;28.10;;;0.80;;
3817;SDS011;1924;48.078;11.516;2023-01-01T16:28:45;28.20;;;0.80;;
3817;SDS011;1924;48.078;11.516;2023-01-01T16:31:12;28.10;;;0.80;;
3817;SDS011;1924;48.078;11.516;2023-01-01T16:33:41;28.00;;;0.77;;
3817;SDS011;1924;48.078;11.516;2023-01-01T16:36:09;28.00;;;0.80;;
3817;SDS011;1924;48.078;11.516;2023-01-01T16:38:37;28.10;;;0.70;;
3817;SDS011;1924;48.078;11.516;2023-01-01T16:41:05;27.90;;;0.80;;
3817;SDS011;1924;48.078;11.516;2023-01-01T16:43:36;27.90;;;0.80;;
3817;SDS011;1924;48.078;11.516;2023-01-01T16:46:04;28.10;;;0.80;;
3817;SDS011;1924;48.078;11.516;2023-01-01T16:48:34;28.10;;;0.80;;
3817;SDS011;1924;48.078;11.516;2023-01-01T16:51:01;28.00;;;0.80;;
3817;SDS011;1924;48.078;11.516;2023-01-01T16:53:27;28.00;;;0.80;;
3817;SDS011;1924;48.078;11.516;2023-01-01T16:55:54;27.93;;;0.80;;
3817;SDS011;1924;48.078;11.516;2023-01-01T16:58:22;28.00;;;0.80;;
3817;SDS011;1924;48.078;11.516;2023-01-01T17:00:49;27.90;;;0.80;;
3817;SDS011;1924;48.078;11.516;2023-01-01T17:03:24;28.00;;;0.80;;
3817;SDS011;1924;48.078;11.516;2023-01-01T17:05:51;27.90;;;0.80;;
3817;SDS011;1924;48.078;11.516;2023-01-01T17:08:18;28.00;;;0.80;;
3817;SDS011;1924;48.078;11.516;2023-01-01T17:10:45;28.00;;;0.80;;
3817;SDS011;1924;48.078;11.516;2023-01-01T17:13:11;27.90;;;0.80;;
3817;SDS011;1924;48.078;11.516;2023-01-01T17:15:41;27.70;;;0.80;;
3817;SDS011;1924;48.078;11.516;2023-01-01T17:18:08;27.80;;;0.80;;
3817;SDS011;1924;48.078;11.516;2023-01-01T17:20:35;27.70;;;0.80;;
3817;SDS011;1924;48.078;11.516;2023-01-01T17:23:02;27.70;;;0.80;;
3817;SDS011;1924;48.078;11.516;2023-01-01T17:25:29;27.67;;;0.80;;
3817;SDS011;1924;48.078;11.516;2023-01-01T17:27:55;27.60;;;0.80;;
3817;SDS011;1924;48.078;11.516;2023-01-01T17:30:22;27.70;;;0.80;;
3817;SDS011;1924;48.078;11.516;2023-01-01T17:32:50;27.60;;;0.80;;
3817;SDS011;1924;48.078;11.516;2023-01-01T17:35:17;27.67;;;0.80;;
3817;SDS011;1924;48.078;11.516;2023-01-01T17:37:44;27.60;;;0.77;;
3817;SDS011;1924;48.078;11.516;2023-01-01T17:40:11;27.70;;;0.80;;
3817;SDS011;1924;48.078;11.516;2023-01-01T17:42:38;27.80;;;0.80;;
3817;SDS011;1924;48.078;11.516;2023-01-01T17:45:05;27.60;;;0.80;;
3817;SDS011;1924;48.078;11.516;2023-01-01T17:47:33;27.70;;;0.80;;
3817;SDS011;1924;48.078;11.516;2023-01-01T17:50:01;27.50;;;0.80;;
3817;SDS011;1924;48.078;11.516;2023-01-01T17:52:28;27.50;;;0.80;;
3817;SDS011;1924;48.078;11.516;2023-01-01T17:54:55;27.50;;;0.80;;
3817;SDS011;1924;48.078;11.516;2023-01-01T17:57:21;27.50;;;0.80;;
3817;SDS011;1924;48.078;11.516;2023-01-01T17:59:49;27.50;;;0.80;;
3817;SDS011;1924;48.078;11.516;2023-01-01T18:02:16;27.50;;;0.80;;
3817;SDS011;1924;48.078;11.516;2023-01-01T18:04:43;27.50;;;0.80;;
3817;SDS011;1924;48.078;11.516;2023-01-01T18:07:11;27.40;;;0.80;;
3817;SDS011;1924;48.078;11.516;2023-01-01T18:09:40;27.50;;;0.80;;